sensor_id;sensor_type;location;lat;lon;timestamp;P1;durP1;ratioP1;P2;durP2;ratioP2
14209;SDS011;7188;56.070;12.698;2022-11-02T00:01:55;12.17;;;2.10;;
14209;SDS011;7188;56.070;12.698;2022-11-02T00:04:21;13.07;;;2.50;;
14209;SDS011;7188;56.070;12.698;2022-11-02T00:06:46;12.63;;;2.10;;
14209;SDS011;7188;56.070;12.698;2022-11-02T00:09:12;13.77;;;2.27;;
14209;SDS011;7188;56.070;12.698;2022-11-02T00:11:38;11.63;;;1.87;;
14209;SDS011;7188;56.070;12.698;2022-11-02T00:14:03;11.33;;;2.80;;
14209;SDS011;7188;56.070;12.698;2022-11-02T00:16:29;10.37;;;1.97;;
14209;SDS011;7188;56.070;12.698;2022-11-02T00:18:56;14.57;;;2.33;;
14209;SDS011;7188;56.070;12.698;2022-11-02T00:21:24;9.33;;;1.50;;
14209;SDS011;7188;56.070;12.698;2022-11-02T00:23:50;15.47;;;2.27;;
14209;SDS011;7188;56.070;12.698;2022-11-02T00:26:17;13.90;;;2.13;;
14209;SDS011;7188;56.070;12.698;2022-11-02T00:28:43;9.07;;;1.90;;
14209;SDS011;7188;56.070;12.698;2022-11-02T00:31:09;10.60;;;2.03;;
14209;SDS011;7188;56.070;12.698;2022-11-02T00:33:34;11.20;;;2.37;;
14209;SDS011;7188;56.070;12.698;2022-11-02T00:36:00;11.43;;;2.03;;
14209;SDS011;7188;56.070;12.698;2022-11-02T00:38:25;7.70;;;2.00;;
14209;SDS011;7188;56.070;12.698;2022-11-02T00:40:51;9.47;;;2.10;;
14209;SDS011;7188;56.070;12.698;2022-11-02T00:43:16;11.23;;;2.67;;
14209;SDS011;7188;56.070;12.698;2022-11-02T00:45:42;11.23;;;2.07;;
14209;SDS011;7188;56.070;12.698;2022-11-02T00:48:08;10.27;;;1.60;;
14209;SDS011;7188;56.070;12.698;2022-11-02T00:50:33;13.50;;;2.10;;
14209;SDS011;7188;56.070;12.698;2022-11-02T00:52:59;6.67;;;1.70;;
14209;SDS011;7188;56.070;12.698;2022-11-02T00:55:25;10.50;;;2.03;;
14209;SDS011;7188;56.070;12.698;2022-11-02T00:57:50;8.83;;;1.97;;
14209;SDS011;7188;56.070;12.698;2022-11-02T01:00:24;8.80;;;1.60;;
14209;SDS011;7188;56.070;12.698;2022-11-02T01:02:49;7.87;;;1.90;;
14209;SDS011;7188;56.070;12.698;2022-11-02T01:05:15;7.83;;;1.73;;
14209;SDS011;7188;56.070;12.698;2022-11-02T01:07:41;11.67;;;2.97;;
14209;SDS011;7188;56.070;12.698;2022-11-02T01:10:07;13.13;;;2.00;;
14209;SDS011;7188;56.070;12.698;2022-11-02T01:12:37;9.57;;;2.13;;
14209;SDS011;7188;56.070;12.698;2022-11-02T01:15:04;8.37;;;2.00;;
14209;SDS011;7188;56.070;12.698;2022-11-02T01:17:31;12.50;;;2.67;;
14209;SDS011;7188;56.070;12.698;2022-11-02T01:19:57;13.10;;;2.23;;
14209;SDS011;7188;56.070;12.698;2022-11-02T01:22:23;10.87;;;2.30;;
14209;SDS011;7188;56.070;12.698;2022-11-02T01:24:49;15.30;;;2.33;;
14209;SDS011;7188;56.070;12.698;2022-11-02T01:27:14;9.20;;;2.07;;
14209;SDS011;7188;56.070;12.698;2022-11-02T01:29:40;11.90;;;2.23;;
14209;SDS011;7188;56.070;12.698;2022-11-02T01:32:05;15.97;;;2.00;;
14209;SDS011;7188;56.070;12.698;2022-11-02T01:34:31;12.57;;;2.10;;
14209;SDS011;7188;56.070;12.698;2022-11-02T01:36:56;14.47;;;2.27;;
14209;SDS011;7188;56.070;12.698;2022-11-02T01:39:23;12.07;;;2.70;;
14209;SDS011;7188;56.070;12.698;2022-11-02T01:41:51;9.27;;;2.10;;
14209;SDS011;7188;56.070;12.698;2022-11-02T01:44:31;8.93;;;2.57;;
14209;SDS011;7188;56.070;12.698;2022-11-02T01:47:07;8.13;;;1.73;;
14209;SDS011;7188;56.070;12.698;2022-11-02T01:49:42;9.40;;;1.90;;
14209;SDS011;7188;56.070;12.698;2022-11-02T01:54:39;14.20;;;3.03;;
14209;SDS011;7188;56.070;12.698;2022-11-02T01:57:09;13.60;;;2.90;;
14209;SDS011;7188;56.070;12.698;2022-11-02T02:00:11;7.63;;;2.27;;
14209;SDS011;7188;56.070;12.698;2022-11-02T02:02:55;15.00;;;1.97;;
14209;SDS011;7188;56.070;12.698;2022-11-02T02:05:35;7.77;;;1.77;;
14209;SDS011;7188;56.070;12.698;2022-11-02T02:08:04;5.20;;;1.60;;
14209;SDS011;7188;56.070;12.698;2022-11-02T02:10:32;13.13;;;2.57;;
14209;SDS011;7188;56.070;12.698;2022-11-02T02:12:58;15.20;;;2.53;;
14209;SDS011;7188;56.070;12.698;2022-11-02T02:15:27;11.00;;;2.63;;
14209;SDS011;7188;56.070;12.698;2022-11-02T02:18:00;11.23;;;1.80;;
14209;SDS011;7188;56.070;12.698;2022-11-02T02:29:10;11.07;;;2.00;;
14209;SDS011;7188;56.070;12.698;2022-11-02T02:31:42;10.50;;;2.10;;
14209;SDS011;7188;56.070;12.698;2022-11-02T02:34:18;11.33;;;2.47;;
14209;SDS011;7188;56.070;12.698;2022-11-02T02:37:02;7.73;;;1.90;;
14209;SDS011;7188;56.070;12.698;2022-11-02T02:42:30;7.40;;;1.73;;
14209;SDS011;7188;56.070;12.698;2022-11-02T02:47:39;5.13;;;1.90;;
14209;SDS011;7188;56.070;12.698;2022-11-02T02:50:15;10.67;;;1.73;;
14209;SDS011;7188;56.070;12.698;2022-11-02T02:52:50;9.00;;;1.67;;
14209;SDS011;7188;56.070;12.698;2022-11-02T02:55:34;6.07;;;1.60;;
14209;SDS011;7188;56.070;12.698;2022-11-02T02:58:05;6.53;;;1.77;;
14209;SDS011;7188;56.070;12.698;2022-11-02T03:00:34;10.90;;;2.00;;
14209;SDS011;7188;56.070;12.698;2022-11-02T03:03:01;8.30;;;1.87;;
14209;SDS011;7188;56.070;12.698;2022-11-02T03:08:06;8.43;;;2.17;;
14209;SDS011;7188;56.070;12.698;2022-11-02T03:10:46;10.80;;;1.83;;
14209;SDS011;7188;56.070;12.698;2022-11-02T03:13:29;17.57;;;2.30;;
14209;SDS011;7188;56.070;12.698;2022-11-02T03:18:59;11.93;;;1.97;;
14209;SDS011;7188;56.070;12.698;2022-11-02T03:21:33;11.80;;;2.50;;
14209;SDS011;7188;56.070;12.698;2022-11-02T03:24:11;10.07;;;1.63;;
14209;SDS011;7188;56.070;12.698;2022-11-02T03:26:42;10.67;;;2.00;;
14209;SDS011;7188;56.070;12.698;2022-11-02T03:29:27;10.67;;;2.20;;
14209;SDS011;7188;56.070;12.698;2022-11-02T03:32:08;10.27;;;1.87;;
14209;SDS011;7188;56.070;12.698;2022-11-02T03:34:44;9.80;;;2.40;;
14209;SDS011;7188;56.070;12.698;2022-11-02T03:37:19;9.57;;;1.97;;
14209;SDS011;7188;56.070;12.698;2022-11-02T03:39:51;7.90;;;1.73;;
14209;SDS011;7188;56.070;12.698;2022-11-02T03:42:22;8.77;;;1.70;;
14209;SDS011;7188;56.070;12.698;2022-11-02T03:44:56;12.90;;;2.33;;
14209;SDS011;7188;56.070;12.698;2022-11-02T03:47:25;13.03;;;2.20;;
14209;SDS011;7188;56.070;12.698;2022-11-02T03:49:55;9.57;;;1.80;;
14209;SDS011;7188;56.070;12.698;2022-11-02T03:52:23;11.73;;;2.13;;
14209;SDS011;7188;56.070;12.698;2022-11-02T03:54:59;9.00;;;1.97;;
14209;SDS011;7188;56.070;12.698;2022-11-02T03:57:32;8.10;;;1.60;;
14209;SDS011;7188;56.070;12.698;2022-11-02T04:00:06;10.17;;;1.83;;
14209;SDS011;7188;56.070;12.698;2022-11-02T04:02:36;9.50;;;1.73;;
14209;SDS011;7188;56.070;12.698;2022-11-02T04:05:04;3.93;;;1.73;;
14209;SDS011;7188;56.070;12.698;2022-11-02T04:07:31;10.90;;;1.73;;
14209;SDS011;7188;56.070;12.698;2022-11-02T04:10:18;9.67;;;1.87;;
14209;SDS011;7188;56.070;12.698;2022-11-02T04:12:44;6.63;;;1.80;;
14209;SDS011;7188;56.070;12.698;2022-11-02T04:15:29;8.87;;;2.07;;
14209;SDS011;7188;56.070;12.698;2022-11-02T04:17:55;7.27;;;1.43;;
14209;SDS011;7188;56.070;12.698;2022-11-02T04:20:39;7.47;;;1.70;;
14209;SDS011;7188;56.070;12.698;2022-11-02T04:23:04;10.53;;;1.40;;
14209;SDS011;7188;56.070;12.698;2022-11-02T04:25:56;9.40;;;1.77;;
14209;SDS011;7188;56.070;12.698;2022-11-02T04:28:21;11.93;;;2.10;;
14209;SDS011;7188;56.070;12.698;2022-11-02T04:30:47;11.97;;;1.77;;
14209;SDS011;7188;56.070;12.698;2022-11-02T04:33:12;11.37;;;1.60;;
14209;SDS011;7188;56.070;12.698;2022-11-02T04:38:27;10.07;;;1.73;;
14209;SDS011;7188;56.070;12.698;2022-11-02T04:41:11;8.40;;;1.40;;
14209;SDS011;7188;56.070;12.698;2022-11-02T04:43:57;9.40;;;2.17;;
14209;SDS011;7188;56.070;12.698;2022-11-02T04:46:24;10.80;;;2.07;;
14209;SDS011;7188;56.070;12.698;2022-11-02T04:48:51;7.20;;;2.07;;
14209;SDS011;7188;56.070;12.698;2022-11-02T04:51:18;9.30;;;1.83;;
14209;SDS011;7188;56.070;12.698;2022-11-02T04:53:45;10.37;;;1.63;;
14209;SDS011;7188;56.070;12.698;2022-11-02T04:56:11;12.20;;;2.57;;
14209;SDS011;7188;56.070;12.698;2022-11-02T04:58:37;11.37;;;1.90;;
14209;SDS011;7188;56.070;12.698;2022-11-02T05:01:07;12.23;;;2.03;;
14209;SDS011;7188;56.070;12.698;2022-11-02T05:03:36;9.50;;;2.13;;
14209;SDS011;7188;56.070;12.698;2022-11-02T05:06:01;17.67;;;2.33;;
14209;SDS011;7188;56.070;12.698;2022-11-02T05:08:27;9.73;;;1.43;;
14209;SDS011;7188;56.070;12.698;2022-11-02T05:10:54;20.50;;;2.43;;
14209;SDS011;7188;56.070;12.698;2022-11-02T05:13:20;8.83;;;1.83;;
14209;SDS011;7188;56.070;12.698;2022-11-02T05:15:46;12.17;;;2.50;;
14209;SDS011;7188;56.070;12.698;2022-11-02T05:18:12;13.80;;;2.30;;
14209;SDS011;7188;56.070;12.698;2022-11-02T05:20:37;16.77;;;2.37;;
14209;SDS011;7188;56.070;12.698;2022-11-02T05:23:03;9.50;;;2.20;;
14209;SDS011;7188;56.070;12.698;2022-11-02T05:25:30;11.93;;;2.30;;
14209;SDS011;7188;56.070;12.698;2022-11-02T05:27:56;9.30;;;1.60;;
14209;SDS011;7188;56.070;12.698;2022-11-02T05:30:22;16.63;;;2.07;;
14209;SDS011;7188;56.070;12.698;2022-11-02T05:32:48;11.90;;;2.83;;
14209;SDS011;7188;56.070;12.698;2022-11-02T05:35:14;9.13;;;1.73;;
14209;SDS011;7188;56.070;12.698;2022-11-02T05:37:39;9.63;;;1.83;;
14209;SDS011;7188;56.070;12.698;2022-11-02T05:40:08;9.10;;;1.87;;
14209;SDS011;7188;56.070;12.698;2022-11-02T05:42:34;12.90;;;1.93;;
14209;SDS011;7188;56.070;12.698;2022-11-02T05:45:00;8.33;;;1.40;;
14209;SDS011;7188;56.070;12.698;2022-11-02T05:47:25;11.43;;;2.30;;
14209;SDS011;7188;56.070;12.698;2022-11-02T05:49:51;12.07;;;1.80;;
14209;SDS011;7188;56.070;12.698;2022-11-02T05:52:16;5.87;;;1.70;;
14209;SDS011;7188;56.070;12.698;2022-11-02T05:54:42;11.47;;;1.53;;
14209;SDS011;7188;56.070;12.698;2022-11-02T05:57:26;8.70;;;2.10;;
14209;SDS011;7188;56.070;12.698;2022-11-02T05:59:51;14.90;;;2.87;;
14209;SDS011;7188;56.070;12.698;2022-11-02T06:02:17;8.57;;;2.40;;
14209;SDS011;7188;56.070;12.698;2022-11-02T06:07:27;12.07;;;2.07;;
14209;SDS011;7188;56.070;12.698;2022-11-02T06:09:53;10.57;;;1.67;;
14209;SDS011;7188;56.070;12.698;2022-11-02T06:12:18;6.17;;;2.00;;
14209;SDS011;7188;56.070;12.698;2022-11-02T06:14:44;10.73;;;1.93;;
14209;SDS011;7188;56.070;12.698;2022-11-02T06:17:09;11.30;;;1.87;;
14209;SDS011;7188;56.070;12.698;2022-11-02T06:19:35;7.93;;;1.57;;
14209;SDS011;7188;56.070;12.698;2022-11-02T06:22:01;9.30;;;1.80;;
14209;SDS011;7188;56.070;12.698;2022-11-02T06:24:26;6.03;;;2.30;;
14209;SDS011;7188;56.070;12.698;2022-11-02T06:26:52;8.10;;;2.97;;
14209;SDS011;7188;56.070;12.698;2022-11-02T06:29:17;10.20;;;1.80;;
14209;SDS011;7188;56.070;12.698;2022-11-02T06:31:43;13.20;;;2.00;;
14209;SDS011;7188;56.070;12.698;2022-11-02T06:34:08;6.27;;;1.43;;
14209;SDS011;7188;56.070;12.698;2022-11-02T06:36:34;10.67;;;2.17;;
14209;SDS011;7188;56.070;12.698;2022-11-02T06:39:00;9.30;;;2.10;;
14209;SDS011;7188;56.070;12.698;2022-11-02T06:41:25;10.57;;;2.13;;
14209;SDS011;7188;56.070;12.698;2022-11-02T06:43:51;8.57;;;2.20;;
14209;SDS011;7188;56.070;12.698;2022-11-02T06:46:16;9.07;;;1.90;;
14209;SDS011;7188;56.070;12.698;2022-11-02T06:48:42;8.33;;;2.00;;
14209;SDS011;7188;56.070;12.698;2022-11-02T06:51:10;6.00;;;1.80;;
14209;SDS011;7188;56.070;12.698;2022-11-02T06:53:36;13.63;;;2.47;;
14209;SDS011;7188;56.070;12.698;2022-11-02T06:56:01;8.93;;;2.77;;
14209;SDS011;7188;56.070;12.698;2022-11-02T06:58:27;10.10;;;1.90;;
14209;SDS011;7188;56.070;12.698;2022-11-02T07:01:00;9.67;;;1.90;;
14209;SDS011;7188;56.070;12.698;2022-11-02T07:03:27;11.70;;;2.07;;
14209;SDS011;7188;56.070;12.698;2022-11-02T07:05:54;10.53;;;1.93;;
14209;SDS011;7188;56.070;12.698;2022-11-02T07:08:20;12.00;;;2.20;;
14209;SDS011;7188;56.070;12.698;2022-11-02T07:10:45;11.83;;;2.60;;
14209;SDS011;7188;56.070;12.698;2022-11-02T07:13:11;10.80;;;2.63;;
14209;SDS011;7188;56.070;12.698;2022-11-02T07:15:37;9.17;;;1.87;;
14209;SDS011;7188;56.070;12.698;2022-11-02T07:18:03;10.93;;;2.20;;
14209;SDS011;7188;56.070;12.698;2022-11-02T07:20:30;9.33;;;2.00;;
14209;SDS011;7188;56.070;12.698;2022-11-02T07:22:57;9.33;;;2.17;;
14209;SDS011;7188;56.070;12.698;2022-11-02T07:25:25;12.13;;;2.83;;
14209;SDS011;7188;56.070;12.698;2022-11-02T07:27:52;16.73;;;2.43;;
14209;SDS011;7188;56.070;12.698;2022-11-02T07:30:18;11.57;;;2.03;;
14209;SDS011;7188;56.070;12.698;2022-11-02T07:32:45;11.47;;;1.93;;
14209;SDS011;7188;56.070;12.698;2022-11-02T07:35:11;9.93;;;2.50;;
14209;SDS011;7188;56.070;12.698;2022-11-02T07:37:38;15.60;;;3.07;;
14209;SDS011;7188;56.070;12.698;2022-11-02T07:40:05;6.20;;;1.70;;
14209;SDS011;7188;56.070;12.698;2022-11-02T07:42:33;14.43;;;2.40;;
14209;SDS011;7188;56.070;12.698;2022-11-02T07:44:58;12.50;;;1.93;;
14209;SDS011;7188;56.070;12.698;2022-11-02T07:47:24;6.13;;;1.60;;
14209;SDS011;7188;56.070;12.698;2022-11-02T07:49:50;11.50;;;2.10;;
14209;SDS011;7188;56.070;12.698;2022-11-02T07:52:15;9.03;;;1.80;;
14209;SDS011;7188;56.070;12.698;2022-11-02T07:54:41;7.07;;;1.30;;
14209;SDS011;7188;56.070;12.698;2022-11-02T07:57:06;6.90;;;1.50;;
14209;SDS011;7188;56.070;12.698;2022-11-02T07:59:32;10.40;;;1.77;;
14209;SDS011;7188;56.070;12.698;2022-11-02T08:01:57;9.23;;;1.97;;
14209;SDS011;7188;56.070;12.698;2022-11-02T08:04:23;8.47;;;2.63;;
14209;SDS011;7188;56.070;12.698;2022-11-02T08:06:49;7.83;;;1.50;;
14209;SDS011;7188;56.070;12.698;2022-11-02T08:09:14;7.87;;;1.27;;
14209;SDS011;7188;56.070;12.698;2022-11-02T08:11:40;9.17;;;1.90;;
14209;SDS011;7188;56.070;12.698;2022-11-02T08:14:06;7.70;;;1.77;;
14209;SDS011;7188;56.070;12.698;2022-11-02T08:16:35;8.93;;;1.47;;
14209;SDS011;7188;56.070;12.698;2022-11-02T08:19:02;8.07;;;1.70;;
14209;SDS011;7188;56.070;12.698;2022-11-02T08:21:27;8.13;;;1.70;;
14209;SDS011;7188;56.070;12.698;2022-11-02T08:23:53;9.63;;;2.33;;
14209;SDS011;7188;56.070;12.698;2022-11-02T08:26:19;11.77;;;1.90;;
14209;SDS011;7188;56.070;12.698;2022-11-02T08:28:45;8.87;;;1.90;;
14209;SDS011;7188;56.070;12.698;2022-11-02T08:31:12;11.63;;;2.00;;
14209;SDS011;7188;56.070;12.698;2022-11-02T08:33:40;7.33;;;1.90;;
14209;SDS011;7188;56.070;12.698;2022-11-02T08:36:09;10.13;;;1.63;;
14209;SDS011;7188;56.070;12.698;2022-11-02T08:38:35;6.57;;;2.00;;
14209;SDS011;7188;56.070;12.698;2022-11-02T08:41:01;5.93;;;1.63;;
14209;SDS011;7188;56.070;12.698;2022-11-02T08:43:28;12.90;;;2.40;;
14209;SDS011;7188;56.070;12.698;2022-11-02T08:45:56;13.70;;;2.70;;
14209;SDS011;7188;56.070;12.698;2022-11-02T08:48:23;13.57;;;2.03;;
14209;SDS011;7188;56.070;12.698;2022-11-02T08:50:53;8.00;;;2.10;;
14209;SDS011;7188;56.070;12.698;2022-11-02T08:53:20;8.10;;;1.90;;
14209;SDS011;7188;56.070;12.698;2022-11-02T08:55:45;9.37;;;2.27;;
14209;SDS011;7188;56.070;12.698;2022-11-02T08:58:11;9.80;;;1.70;;
14209;SDS011;7188;56.070;12.698;2022-11-02T09:00:37;14.87;;;2.60;;
14209;SDS011;7188;56.070;12.698;2022-11-02T09:03:13;8.03;;;2.13;;
14209;SDS011;7188;56.070;12.698;2022-11-02T09:05:42;9.67;;;1.87;;
14209;SDS011;7188;56.070;12.698;2022-11-02T09:08:13;7.97;;;1.60;;
14209;SDS011;7188;56.070;12.698;2022-11-02T09:10:41;6.70;;;1.47;;
14209;SDS011;7188;56.070;12.698;2022-11-02T09:13:09;9.47;;;1.97;;
14209;SDS011;7188;56.070;12.698;2022-11-02T09:15:38;12.80;;;1.87;;
14209;SDS011;7188;56.070;12.698;2022-11-02T09:18:04;12.10;;;2.50;;
14209;SDS011;7188;56.070;12.698;2022-11-02T09:20:31;7.87;;;2.20;;
14209;SDS011;7188;56.070;12.698;2022-11-02T09:22:57;10.83;;;2.30;;
14209;SDS011;7188;56.070;12.698;2022-11-02T09:25:23;9.97;;;1.97;;
14209;SDS011;7188;56.070;12.698;2022-11-02T09:27:52;9.57;;;2.30;;
14209;SDS011;7188;56.070;12.698;2022-11-02T09:30:19;6.87;;;1.93;;
14209;SDS011;7188;56.070;12.698;2022-11-02T09:32:55;8.53;;;1.93;;
14209;SDS011;7188;56.070;12.698;2022-11-02T09:35:22;6.73;;;2.00;;
14209;SDS011;7188;56.070;12.698;2022-11-02T09:37:48;8.97;;;2.07;;
14209;SDS011;7188;56.070;12.698;2022-11-02T09:40:15;13.13;;;2.10;;
14209;SDS011;7188;56.070;12.698;2022-11-02T09:45:25;10.37;;;2.10;;
14209;SDS011;7188;56.070;12.698;2022-11-02T09:50:21;8.90;;;2.97;;
14209;SDS011;7188;56.070;12.698;2022-11-02T09:52:58;9.53;;;1.57;;
14209;SDS011;7188;56.070;12.698;2022-11-02T09:55:29;7.43;;;1.90;;
14209;SDS011;7188;56.070;12.698;2022-11-02T09:58:02;10.80;;;2.67;;
14209;SDS011;7188;56.070;12.698;2022-11-02T10:00:36;11.70;;;2.97;;
14209;SDS011;7188;56.070;12.698;2022-11-02T10:03:08;10.23;;;1.80;;
14209;SDS011;7188;56.070;12.698;2022-11-02T10:08:48;7.77;;;2.20;;
14209;SDS011;7188;56.070;12.698;2022-11-02T10:11:38;9.77;;;1.97;;
14209;SDS011;7188;56.070;12.698;2022-11-02T10:14:19;8.37;;;1.83;;
14209;SDS011;7188;56.070;12.698;2022-11-02T10:17:00;9.93;;;2.60;;
14209;SDS011;7188;56.070;12.698;2022-11-02T10:19:40;9.33;;;1.90;;
14209;SDS011;7188;56.070;12.698;2022-11-02T10:22:11;8.17;;;2.37;;
14209;SDS011;7188;56.070;12.698;2022-11-02T10:24:43;7.20;;;1.87;;
14209;SDS011;7188;56.070;12.698;2022-11-02T10:27:17;11.20;;;3.30;;
14209;SDS011;7188;56.070;12.698;2022-11-02T10:32:34;7.20;;;1.70;;
14209;SDS011;7188;56.070;12.698;2022-11-02T10:35:02;5.67;;;1.80;;
14209;SDS011;7188;56.070;12.698;2022-11-02T10:45:51;9.27;;;1.80;;
14209;SDS011;7188;56.070;12.698;2022-11-02T10:48:48;14.17;;;2.33;;
14209;SDS011;7188;56.070;12.698;2022-11-02T10:51:25;6.00;;;1.63;;
14209;SDS011;7188;56.070;12.698;2022-11-02T10:53:53;6.00;;;1.23;;
14209;SDS011;7188;56.070;12.698;2022-11-02T10:56:29;7.30;;;1.93;;
14209;SDS011;7188;56.070;12.698;2022-11-02T11:01:29;9.10;;;1.30;;
14209;SDS011;7188;56.070;12.698;2022-11-02T11:09:04;10.37;;;1.77;;
14209;SDS011;7188;56.070;12.698;2022-11-02T11:11:52;12.37;;;2.27;;
14209;SDS011;7188;56.070;12.698;2022-11-02T11:14:18;9.47;;;2.10;;
14209;SDS011;7188;56.070;12.698;2022-11-02T11:16:47;5.23;;;1.47;;
14209;SDS011;7188;56.070;12.698;2022-11-02T11:19:22;5.67;;;1.50;;
14209;SDS011;7188;56.070;12.698;2022-11-02T11:21:48;6.40;;;1.50;;
14209;SDS011;7188;56.070;12.698;2022-11-02T11:26:58;3.77;;;1.10;;
14209;SDS011;7188;56.070;12.698;2022-11-02T11:29:37;5.13;;;1.30;;
14209;SDS011;7188;56.070;12.698;2022-11-02T11:32:12;7.30;;;1.17;;
14209;SDS011;7188;56.070;12.698;2022-11-02T11:34:49;8.07;;;1.10;;
14209;SDS011;7188;56.070;12.698;2022-11-02T11:37:22;10.70;;;1.07;;
14209;SDS011;7188;56.070;12.698;2022-11-02T11:40:14;13.20;;;1.80;;
14209;SDS011;7188;56.070;12.698;2022-11-02T11:42:43;7.17;;;1.20;;
14209;SDS011;7188;56.070;12.698;2022-11-02T11:45:25;5.90;;;1.27;;
14209;SDS011;7188;56.070;12.698;2022-11-02T11:47:52;11.47;;;1.70;;
14209;SDS011;7188;56.070;12.698;2022-11-02T11:50:20;9.73;;;1.33;;
14209;SDS011;7188;56.070;12.698;2022-11-02T11:52:47;6.70;;;1.27;;
14209;SDS011;7188;56.070;12.698;2022-11-02T11:55:49;7.40;;;1.50;;
14209;SDS011;7188;56.070;12.698;2022-11-02T11:58:23;7.23;;;1.20;;
14209;SDS011;7188;56.070;12.698;2022-11-02T12:01:04;8.20;;;1.67;;
14209;SDS011;7188;56.070;12.698;2022-11-02T12:03:31;4.53;;;1.10;;
14209;SDS011;7188;56.070;12.698;2022-11-02T12:12:00;8.50;;;1.47;;
14209;SDS011;7188;56.070;12.698;2022-11-02T12:31:44;6.30;;;1.20;;
14209;SDS011;7188;56.070;12.698;2022-11-02T12:34:41;6.40;;;1.50;;
14209;SDS011;7188;56.070;12.698;2022-11-02T12:42:57;9.30;;;1.27;;
14209;SDS011;7188;56.070;12.698;2022-11-02T12:45:58;6.87;;;1.07;;
14209;SDS011;7188;56.070;12.698;2022-11-02T12:48:27;4.40;;;1.03;;
14209;SDS011;7188;56.070;12.698;2022-11-02T12:51:20;5.13;;;1.27;;
14209;SDS011;7188;56.070;12.698;2022-11-02T12:54:11;4.13;;;0.93;;
14209;SDS011;7188;56.070;12.698;2022-11-02T12:56:45;6.23;;;1.30;;
14209;SDS011;7188;56.070;12.698;2022-11-02T12:59:26;5.03;;;0.90;;
14209;SDS011;7188;56.070;12.698;2022-11-02T13:02:01;7.60;;;0.63;;
14209;SDS011;7188;56.070;12.698;2022-11-02T13:04:31;4.37;;;0.60;;
14209;SDS011;7188;56.070;12.698;2022-11-02T13:07:04;2.43;;;0.60;;
14209;SDS011;7188;56.070;12.698;2022-11-02T13:09:59;3.80;;;0.60;;
14209;SDS011;7188;56.070;12.698;2022-11-02T13:12:26;3.47;;;0.80;;
14209;SDS011;7188;56.070;12.698;2022-11-02T13:14:55;4.57;;;0.53;;
14209;SDS011;7188;56.070;12.698;2022-11-02T13:23:34;2.80;;;0.50;;
14209;SDS011;7188;56.070;12.698;2022-11-02T13:25:50;6.43;;;0.80;;
14209;SDS011;7188;56.070;12.698;2022-11-02T13:28:33;3.50;;;0.70;;
14209;SDS011;7188;56.070;12.698;2022-11-02T13:31:05;6.13;;;0.80;;
14209;SDS011;7188;56.070;12.698;2022-11-02T13:33:54;2.63;;;0.60;;
14209;SDS011;7188;56.070;12.698;2022-11-02T13:36:24;2.63;;;0.50;;
14209;SDS011;7188;56.070;12.698;2022-11-02T13:38:51;8.97;;;0.90;;
14209;SDS011;7188;56.070;12.698;2022-11-02T13:49:52;4.67;;;1.47;;
14209;SDS011;7188;56.070;12.698;2022-11-02T13:55:19;5.83;;;0.77;;
14209;SDS011;7188;56.070;12.698;2022-11-02T13:57:54;5.17;;;1.10;;
14209;SDS011;7188;56.070;12.698;2022-11-02T14:03:11;4.33;;;0.80;;
14209;SDS011;7188;56.070;12.698;2022-11-02T14:08:22;3.30;;;0.90;;
14209;SDS011;7188;56.070;12.698;2022-11-02T14:19:52;1.77;;;0.80;;
14209;SDS011;7188;56.070;12.698;2022-11-02T14:22:16;4.37;;;0.70;;
14209;SDS011;7188;56.070;12.698;2022-11-02T14:34:56;5.30;;;0.80;;
14209;SDS011;7188;56.070;12.698;2022-11-02T14:48:47;3.97;;;0.77;;
14209;SDS011;7188;56.070;12.698;2022-11-02T14:51:27;5.93;;;1.00;;
14209;SDS011;7188;56.070;12.698;2022-11-02T14:53:59;5.53;;;0.90;;
14209;SDS011;7188;56.070;12.698;2022-11-02T14:59:17;3.13;;;0.63;;
14209;SDS011;7188;56.070;12.698;2022-11-02T15:01:53;3.53;;;0.70;;
14209;SDS011;7188;56.070;12.698;2022-11-02T15:04:24;2.40;;;0.40;;
14209;SDS011;7188;56.070;12.698;2022-11-02T15:06:53;2.90;;;0.90;;
14209;SDS011;7188;56.070;12.698;2022-11-02T15:10:10;3.83;;;0.80;;
14209;SDS011;7188;56.070;12.698;2022-11-02T15:12:39;2.90;;;0.70;;
14209;SDS011;7188;56.070;12.698;2022-11-02T15:17:59;3.50;;;0.80;;
14209;SDS011;7188;56.070;12.698;2022-11-02T15:20:26;7.03;;;0.90;;
14209;SDS011;7188;56.070;12.698;2022-11-02T15:25:39;4.07;;;0.77;;
14209;SDS011;7188;56.070;12.698;2022-11-02T15:30:39;4.90;;;0.63;;
14209;SDS011;7188;56.070;12.698;2022-11-02T15:36:05;6.20;;;0.80;;
14209;SDS011;7188;56.070;12.698;2022-11-02T15:38:32;8.97;;;1.33;;
14209;SDS011;7188;56.070;12.698;2022-11-02T15:41:14;4.90;;;0.80;;
14209;SDS011;7188;56.070;12.698;2022-11-02T15:44:03;5.70;;;1.10;;
14209;SDS011;7188;56.070;12.698;2022-11-02T15:52:01;4.50;;;1.00;;
14209;SDS011;7188;56.070;12.698;2022-11-02T16:02:40;8.17;;;1.23;;
14209;SDS011;7188;56.070;12.698;2022-11-02T16:05:14;11.20;;;0.80;;
14209;SDS011;7188;56.070;12.698;2022-11-02T16:07:47;5.47;;;1.03;;
14209;SDS011;7188;56.070;12.698;2022-11-02T16:13:11;5.10;;;0.90;;
14209;SDS011;7188;56.070;12.698;2022-11-02T16:15:40;7.93;;;1.63;;
14209;SDS011;7188;56.070;12.698;2022-11-02T16:18:23;8.97;;;1.90;;
14209;SDS011;7188;56.070;12.698;2022-11-02T16:21:04;6.43;;;0.77;;
14209;SDS011;7188;56.070;12.698;2022-11-02T16:23:33;6.37;;;1.17;;
14209;SDS011;7188;56.070;12.698;2022-11-02T16:26:04;5.50;;;1.00;;
14209;SDS011;7188;56.070;12.698;2022-11-02T16:28:35;8.23;;;1.33;;
14209;SDS011;7188;56.070;12.698;2022-11-02T16:33:37;4.70;;;0.80;;
14209;SDS011;7188;56.070;12.698;2022-11-02T16:36:05;8.40;;;1.03;;
14209;SDS011;7188;56.070;12.698;2022-11-02T16:38:34;7.37;;;1.87;;
14209;SDS011;7188;56.070;12.698;2022-11-02T16:41:01;7.67;;;1.53;;
14209;SDS011;7188;56.070;12.698;2022-11-02T16:43:28;8.40;;;1.97;;
14209;SDS011;7188;56.070;12.698;2022-11-02T16:46:03;5.03;;;1.50;;
14209;SDS011;7188;56.070;12.698;2022-11-02T16:48:31;9.77;;;1.00;;
14209;SDS011;7188;56.070;12.698;2022-11-02T16:53:27;9.77;;;1.03;;
14209;SDS011;7188;56.070;12.698;2022-11-02T16:55:55;7.43;;;1.70;;
14209;SDS011;7188;56.070;12.698;2022-11-02T16:58:26;5.53;;;0.93;;
14209;SDS011;7188;56.070;12.698;2022-11-02T17:00:56;6.83;;;1.00;;
14209;SDS011;7188;56.070;12.698;2022-11-02T17:03:25;4.87;;;0.93;;
14209;SDS011;7188;56.070;12.698;2022-11-02T17:05:57;8.10;;;1.00;;
14209;SDS011;7188;56.070;12.698;2022-11-02T17:08:31;11.00;;;1.57;;
14209;SDS011;7188;56.070;12.698;2022-11-02T17:10:59;9.07;;;1.63;;
14209;SDS011;7188;56.070;12.698;2022-11-02T17:13:31;9.00;;;1.10;;
14209;SDS011;7188;56.070;12.698;2022-11-02T17:16:18;10.57;;;1.23;;
14209;SDS011;7188;56.070;12.698;2022-11-02T17:18:44;10.13;;;1.73;;
14209;SDS011;7188;56.070;12.698;2022-11-02T17:21:26;8.87;;;1.23;;
14209;SDS011;7188;56.070;12.698;2022-11-02T17:23:54;10.77;;;1.03;;
14209;SDS011;7188;56.070;12.698;2022-11-02T17:28:48;9.93;;;1.60;;
14209;SDS011;7188;56.070;12.698;2022-11-02T17:31:35;9.40;;;1.47;;
14209;SDS011;7188;56.070;12.698;2022-11-02T17:34:08;5.37;;;1.60;;
14209;SDS011;7188;56.070;12.698;2022-11-02T17:36:41;10.03;;;1.50;;
14209;SDS011;7188;56.070;12.698;2022-11-02T17:39:17;11.00;;;1.40;;
14209;SDS011;7188;56.070;12.698;2022-11-02T17:41:54;11.60;;;1.60;;
14209;SDS011;7188;56.070;12.698;2022-11-02T17:44:40;8.73;;;1.83;;
14209;SDS011;7188;56.070;12.698;2022-11-02T17:47:12;6.30;;;1.20;;
14209;SDS011;7188;56.070;12.698;2022-11-02T17:49:40;8.40;;;1.07;;
14209;SDS011;7188;56.070;12.698;2022-11-02T17:52:06;10.57;;;1.50;;
14209;SDS011;7188;56.070;12.698;2022-11-02T17:54:37;7.80;;;1.20;;
14209;SDS011;7188;56.070;12.698;2022-11-02T17:57:13;7.20;;;1.53;;
14209;SDS011;7188;56.070;12.698;2022-11-02T17:59:39;6.13;;;1.33;;
14209;SDS011;7188;56.070;12.698;2022-11-02T18:02:11;9.77;;;1.93;;